Terminal Aerodrome Forecast
Issued by NWS

Home | Current Version | Previous Version | Text Only | Print | Product List | Glossary On
Versions: 1 2 3 4 5 6 7 8 9 10 11 12 13 14 15 16 17 18
314
FTUS46 KSEW 230526
TAFHQM
TAF
KHQM 230526Z 2306/2406 VRB06KT P6SM SCT007
      TEMPO 2306/2309 BKN007
     FM230900 VRB06KT P6SM OVC006
     FM231800 26010KT P6SM SCT010 OVC022
      TEMPO 2322/2402 SCT025
     FM240200 27012KT P6SM OVC013=

USA.gov is the U.S. government's official web portal to all federal, state and local government web resources and services.